Terminal Aerodrome Forecast
Issued by NWS

Home | Current Version | Previous Version | Text Only | Print | Product List | Glossary On
Versions: 1 2 3 4 5 6 7 8 9 10 11 12 13 14 15 16 17 18 19
000
FTUS45 KBOI 230806 AAA
TAFMYL
TAF AMD
KMYL 230806Z 2308/2406 00000KT P6SM VCFG SCT002 SCT120
      TEMPO 2308/2312 1SM BR BKN002
     FM231500 17010KT 2SM -SN BR OVC015
     FM232100 19010KT 5SM -SHSN BR SCT015 OVC025
     FM240300 VRB03KT P6SM VCSH SCT030 BKN050=

USA.gov is the U.S. government's official web portal to all federal, state and local government web resources and services.